Terminal Aerodrome Forecast
Issued by NWS Pittsburgh, PA

Home | Current Version | Previous Version | Text Only | Print | Product List | Glossary On
Versions: 1 2 3 4 5 6 7 8 9 10 11 12 13 14 15 16 17 18 19 20 21 22 23 24 25 26 27 28 29 30 31 32 33 34 35 36 37 38 39 40 41 42 43 44 45 46 47 48 49 50
228
FTUS41 KPBZ 200827 AAA
TAFPIT
TAF AMD
KPIT 200827Z 2008/2112 01007KT 2SM -SHRA BR OVC002
      TEMPO 2009/2012 4SM BR SCT002 OVC010
     FM201200 11007KT 6SM -SHRA BKN010
     FM201400 18008G17KT P6SM VCSH BKN090
     FM202300 21006KT 6SM -SHRA OVC030
     FM210600 00000KT P6SM VCSH BKN008=

USA.gov is the U.S. government's official web portal to all federal, state and local government web resources and services.